Time;durP1;ratioP1;P1;durP2;ratioP2;P2;SDS_P1;SDS_P2;PMS_P1;PMS_P2;Temp;Humidity;BMP_temperature;BMP_pressure;BME280_temperature;BME280_humidity;BME280_pressure;Samples;Min_cycle;Max_cycle;Signal;HPM_P1;HPM_P2
2021/03/02 00:02:08;;;;;;;2.17;1.90;;;;;;;25.96;29.06;97849.19;4959318;28;20129;-62
2021/03/02 00:04:33;;;;;;;2.05;1.60;;;;;;;25.96;29.35;97853.59;4959217;28;20106;-62
2021/03/02 00:06:58;;;;;;;2.50;1.80;;;;;;;25.95;28.87;97851.88;4961779;28;20038;-61
2021/03/02 00:09:24;;;;;;;2.25;1.70;;;;;;;25.94;29.09;97858.06;4953349;28;20058;-61
2021/03/02 00:11:50;;;;;;;2.03;1.80;;;;;;;25.95;28.88;97862.38;4972648;28;20612;-61
2021/03/02 00:14:16;;;;;;;3.00;2.00;;;;;;;25.95;29.13;97862.38;4956675;28;20027;-62
2021/03/02 00:16:45;;;;;;;2.20;1.75;;;;;;;25.94;28.99;97865.94;4959421;28;20101;-62
2021/03/02 00:19:14;;;;;;;2.47;1.85;;;;;;;25.94;28.89;97868.56;4958068;28;20031;-62
2021/03/02 00:21:44;;;;;;;1.92;1.60;;;;;;;25.93;28.91;97865.06;4951109;28;20085;-62
2021/03/02 00:24:10;;;;;;;4.10;1.90;;;;;;;25.93;29.03;97866.84;4973478;28;20020;-62
2021/03/02 00:26:37;;;;;;;2.15;1.70;;;;;;;25.92;28.98;97860.72;4955939;28;20487;-61
2021/03/02 00:29:03;;;;;;;2.92;1.80;;;;;;;25.92;29.06;97867.75;4955896;28;20030;-61
2021/03/02 00:31:31;;;;;;;2.65;1.73;;;;;;;25.92;28.91;97873.00;4959559;28;20145;-60
2021/03/02 00:33:57;;;;;;;2.72;1.70;;;;;;;25.92;29.15;97870.38;4953082;28;20118;-62
2021/03/02 00:36:22;;;;;;;4.18;1.98;;;;;;;25.92;29.01;97873.88;4960060;28;20019;-62
2021/03/02 00:38:47;;;;;;;2.30;1.77;;;;;;;25.90;28.99;97873.03;4960451;28;20029;-62
2021/03/02 00:41:13;;;;;;;2.22;1.70;;;;;;;25.91;28.96;97871.28;4958348;28;20586;-62
2021/03/02 00:43:38;;;;;;;2.17;1.67;;;;;;;25.91;29.03;97871.28;4949983;28;20069;-61
2021/03/02 00:46:04;;;;;;;2.30;1.77;;;;;;;25.91;28.95;97871.28;4952408;28;20133;-62
2021/03/02 00:48:29;;;;;;;2.35;1.60;;;;;;;25.90;28.94;97869.56;4955234;28;20542;-60
2021/03/02 00:50:54;;;;;;;2.70;1.85;;;;;;;25.90;28.90;97885.34;4955545;28;22760;-60
2021/03/02 00:53:21;;;;;;;3.10;1.70;;;;;;;25.89;28.91;97873.13;4960651;28;20031;-62
2021/03/02 00:55:46;;;;;;;2.08;1.77;;;;;;;25.89;29.05;97875.75;4954984;28;20042;-62
2021/03/02 00:58:12;;;;;;;2.35;1.70;;;;;;;25.87;28.95;97870.56;4972760;28;20734;-61
2021/03/02 01:00:37;;;;;;;2.10;1.50;;;;;;;25.88;29.09;97871.38;4959218;28;20790;-61
2021/03/02 01:03:03;;;;;;;2.17;1.58;;;;;;;25.87;29.10;97870.56;4955214;28;20050;-62
2021/03/02 01:05:28;;;;;;;2.47;1.80;;;;;;;25.86;29.11;97874.09;4962820;28;20030;-62
2021/03/02 01:07:54;;;;;;;3.15;1.35;;;;;;;25.88;28.96;97871.38;4963024;28;20118;-61
2021/03/02 01:10:19;;;;;;;2.03;1.55;;;;;;;25.87;29.04;97874.94;4979360;28;20081;-61
2021/03/02 01:12:45;;;;;;;2.33;1.60;;;;;;;25.87;29.02;97870.56;4959816;28;20038;-62
2021/03/02 01:15:11;;;;;;;1.40;1.27;;;;;;;25.87;29.10;97874.94;4963529;28;20173;-62
2021/03/02 01:17:36;;;;;;;3.67;1.70;;;;;;;25.86;28.95;97867.97;4959364;28;20038;-61
2021/03/02 01:20:02;;;;;;;1.42;1.33;;;;;;;25.86;28.91;97865.34;4940447;28;20034;-61
2021/03/02 01:22:28;;;;;;;2.35;1.60;;;;;;;25.86;28.95;97862.72;4972130;28;20047;-62
2021/03/02 01:24:53;;;;;;;2.20;1.48;;;;;;;25.86;29.03;97873.22;4964793;28;20542;-63
2021/03/02 01:27:21;;;;;;;1.73;1.55;;;;;;;25.86;29.07;97867.97;4963564;28;20034;-62
2021/03/02 01:29:46;;;;;;;6.00;1.70;;;;;;;25.83;29.13;97864.53;4958932;28;20027;-60
2021/03/02 01:32:12;;;;;;;1.83;1.20;;;;;;;25.83;29.19;97864.53;4959213;28;20047;-62
2021/03/02 01:34:39;;;;;;;1.50;1.40;;;;;;;25.83;28.89;97867.16;4962321;28;20165;-61
2021/03/02 01:37:05;;;;;;;2.00;1.35;;;;;;;25.82;29.06;97860.19;4963109;28;20034;-62
2021/03/02 01:39:30;;;;;;;2.10;1.50;;;;;;;25.82;29.14;97862.81;4960170;28;20046;-62
2021/03/02 01:41:57;;;;;;;1.60;1.40;;;;;;;25.83;29.09;97863.69;4959652;28;20388;-62
2021/03/02 01:44:23;;;;;;;3.90;1.45;;;;;;;25.81;28.97;97861.13;4974283;28;20122;-62
2021/03/02 01:46:49;;;;;;;2.17;1.52;;;;;;;25.81;28.96;97861.13;4958531;28;20150;-60
2021/03/02 01:49:17;;;;;;;1.30;1.20;;;;;;;25.82;28.89;97859.38;4954772;28;20070;-62
2021/03/02 01:51:43;;;;;;;3.60;1.52;;;;;;;25.82;29.11;97862.00;4955884;28;20027;-61
2021/03/02 01:54:10;;;;;;;2.38;1.40;;;;;;;25.81;29.09;97861.13;4972684;28;20076;-62
2021/03/02 01:56:35;;;;;;;1.50;1.15;;;;;;;25.80;29.03;97864.66;4960057;28;20030;-62
2021/03/02 01:59:00;;;;;;;1.10;1.00;;;;;;;25.80;28.91;97854.16;4958674;28;20503;-62
2021/03/02 02:01:26;;;;;;;1.42;1.30;;;;;;;25.80;29.04;97858.53;4972998;28;20039;-62
2021/03/02 02:04:10;;;;;;;2.08;1.55;;;;;;;25.80;28.96;97851.53;4976580;28;20027;-62
2021/03/02 02:06:44;;;;;;;1.70;1.30;;;;;;;25.79;28.96;97862.97;4946185;28;20031;-62
2021/03/02 02:09:15;;;;;;;1.60;1.25;;;;;;;25.78;29.20;97855.97;4968500;28;20031;-62
2021/03/02 02:11:51;;;;;;;2.15;1.48;;;;;;;25.77;29.09;97849.00;4955348;28;20035;-62
2021/03/02 02:14:16;;;;;;;1.50;1.30;;;;;;;25.78;28.99;97850.72;4955829;28;20031;-62
2021/03/02 02:16:42;;;;;;;2.38;1.20;;;;;;;25.77;28.96;97849.00;4955136;28;20054;-62
2021/03/02 02:19:15;;;;;;;2.08;1.20;;;;;;;25.77;29.21;97850.78;4956124;28;20046;-62
2021/03/02 02:22:09;;;;;;;1.42;1.15;;;;;;;25.76;29.03;97851.69;4952352;28;20418;-62
2021/03/02 02:25:06;;;;;;;2.20;1.10;;;;;;;25.76;28.98;97847.31;4936615;28;20078;-62
2021/03/02 02:27:31;;;;;;;1.27;1.10;;;;;;;25.75;29.00;97844.72;4949581;28;20679;-62
2021/03/02 02:29:58;;;;;;;1.30;1.20;;;;;;;25.74;28.90;97843.88;4962878;28;20115;-60
2021/03/02 02:32:26;;;;;;;1.95;1.17;;;;;;;25.74;29.11;97841.25;4946851;28;20511;-62
2021/03/02 02:34:51;;;;;;;1.52;1.10;;;;;;;25.74;29.13;97837.78;4971846;28;20569;-62
2021/03/02 02:37:19;;;;;;;1.83;1.23;;;;;;;25.73;28.94;97842.16;4958860;28;20079;-62
2021/03/02 02:39:44;;;;;;;1.20;1.08;;;;;;;25.73;29.12;97847.41;4945605;28;20034;-62
2021/03/02 02:42:10;;;;;;;1.30;1.10;;;;;;;25.74;28.92;97846.50;4939414;28;20042;-62
2021/03/02 02:44:35;;;;;;;1.48;1.30;;;;;;;25.73;28.99;97839.53;4957046;28;20033;-60
2021/03/02 02:47:00;;;;;;;1.70;1.13;;;;;;;25.74;28.93;97843.03;4953972;28;20042;-61
2021/03/02 02:49:26;;;;;;;1.15;1.05;;;;;;;25.74;28.97;97843.03;4962170;28;20054;-62
2021/03/02 02:51:52;;;;;;;2.15;1.35;;;;;;;25.72;28.96;97837.81;4942117;28;20391;-61
2021/03/02 02:54:17;;;;;;;2.30;1.10;;;;;;;25.72;29.06;97844.84;4962613;28;20038;-61
2021/03/02 02:56:43;;;;;;;1.27;1.00;;;;;;;25.71;29.13;97844.00;4954246;28;20038;-62
2021/03/02 02:59:14;;;;;;;1.65;1.10;;;;;;;25.69;29.10;97851.91;4959145;28;20035;-61
2021/03/02 03:01:43;;;;;;;1.65;1.02;;;;;;;25.70;29.16;97852.75;4969402;28;20043;-61
2021/03/02 03:04:11;;;;;;;3.38;1.40;;;;;;;25.70;29.07;97847.50;4964171;28;20725;-61
2021/03/02 03:06:38;;;;;;;1.70;1.30;;;;;;;25.69;29.03;97848.44;4958844;28;20034;-61
2021/03/02 03:09:06;;;;;;;2.05;1.25;;;;;;;25.69;29.05;97853.69;4938724;28;20907;-61
2021/03/02 03:11:36;;;;;;;1.20;1.10;;;;;;;25.68;29.29;97852.84;4951454;28;20031;-62
2021/03/02 03:14:02;;;;;;;0.90;0.90;;;;;;;25.69;29.07;97856.31;4968890;28;20443;-62
2021/03/02 03:16:27;;;;;;;1.45;1.13;;;;;;;25.66;29.05;97849.41;4952276;28;20046;-61
2021/03/02 03:18:55;;;;;;;1.60;1.30;;;;;;;25.68;29.21;97858.09;4975622;28;20034;-61
2021/03/02 03:21:21;;;;;;;2.35;1.20;;;;;;;25.67;29.15;97853.72;4940168;28;20125;-61
2021/03/02 03:23:47;;;;;;;1.40;1.05;;;;;;;25.66;29.19;97856.44;4959869;28;20026;-60
2021/03/02 03:26:13;;;;;;;2.60;1.30;;;;;;;25.66;28.95;97854.66;4958940;28;20026;-61
2021/03/02 03:28:38;;;;;;;2.20;1.33;;;;;;;25.67;28.91;97852.91;4976064;28;20089;-62
2021/03/02 03:31:05;;;;;;;1.50;1.10;;;;;;;25.65;29.00;97849.44;4960463;28;20059;-62
2021/03/02 03:33:30;;;;;;;1.75;1.10;;;;;;;25.66;29.20;97851.19;4960019;28;20022;-61
2021/03/02 03:35:56;;;;;;;2.58;1.15;;;;;;;25.64;29.14;97843.38;4939167;28;20027;-62
2021/03/02 03:38:21;;;;;;;1.75;1.20;;;;;;;25.65;29.16;97844.19;4959549;28;20027;-61
2021/03/02 03:40:47;;;;;;;1.55;0.95;;;;;;;25.64;29.26;97842.50;4939006;28;20030;-61
2021/03/02 03:43:12;;;;;;;1.30;1.13;;;;;;;25.64;29.19;97842.50;4957591;28;20030;-61
2021/03/02 03:45:37;;;;;;;1.40;1.20;;;;;;;25.64;29.24;97853.00;4954282;28;20062;-61
2021/03/02 03:48:03;;;;;;;3.05;1.23;;;;;;;25.63;29.00;97846.03;4956462;28;20035;-61
2021/03/02 03:50:28;;;;;;;0.88;0.82;;;;;;;25.63;29.25;97851.28;4955740;28;20521;-62
2021/03/02 03:52:58;;;;;;;1.10;0.90;;;;;;;25.62;29.18;97846.94;4957110;28;20023;-61
2021/03/02 03:55:27;;;;;;;2.25;1.10;;;;;;;25.63;29.16;97859.16;4958237;28;20026;-61
2021/03/02 03:57:53;;;;;;;1.25;1.15;;;;;;;25.62;29.08;97852.19;4971029;28;20026;-62
2021/03/02 04:00:18;;;;;;;1.10;1.00;;;;;;;25.62;29.05;97854.84;4972157;28;20031;-60
2021/03/02 04:02:44;;;;;;;1.05;0.95;;;;;;;25.61;28.94;97847.84;4952686;28;20066;-61
2021/03/02 04:05:10;;;;;;;1.17;1.08;;;;;;;25.61;29.10;97853.09;4950515;28;20511;-62
2021/03/02 04:07:35;;;;;;;2.55;1.10;;;;;;;25.61;29.21;97858.34;4956877;28;20022;-61
2021/03/02 04:10:05;;;;;;;1.10;1.00;;;;;;;25.61;29.24;97863.59;4952929;28;20042;-61
2021/03/02 04:12:41;;;;;;;1.27;1.00;;;;;;;25.60;29.08;97861.88;4959248;28;20557;-61
2021/03/02 04:15:10;;;;;;;1.00;0.90;;;;;;;25.59;29.20;97866.25;4953808;28;20027;-62
2021/03/02 04:17:36;;;;;;;1.63;1.13;;;;;;;25.59;29.20;97865.44;4959176;28;20105;-62
2021/03/02 04:20:05;;;;;;;0.88;0.82;;;;;;;25.59;29.01;97854.94;4960401;28;20031;-62
2021/03/02 04:22:32;;;;;;;1.77;0.93;;;;;;;25.59;29.24;97860.19;4956054;28;20027;-62
2021/03/02 04:24:57;;;;;;;1.85;1.20;;;;;;;25.57;29.21;97861.09;4957674;28;20502;-62
2021/03/02 04:27:22;;;;;;;1.20;0.90;;;;;;;25.57;29.10;97863.72;4955836;28;20031;-62
2021/03/02 04:29:48;;;;;;;1.10;1.00;;;;;;;25.56;29.31;97864.59;4954096;28;20038;-62
2021/03/02 04:32:13;;;;;;;1.45;0.93;;;;;;;25.56;29.20;97876.91;4960250;28;20084;-62
2021/03/02 04:34:42;;;;;;;1.10;1.00;;;;;;;25.57;29.25;97873.34;4960530;28;20018;-63
2021/03/02 04:37:07;;;;;;;0.95;0.90;;;;;;;25.55;29.27;97873.38;4948937;28;20027;-62
2021/03/02 04:39:35;;;;;;;0.90;0.70;;;;;;;25.54;29.37;97871.66;4973329;28;20042;-62
2021/03/02 04:42:00;;;;;;;1.67;0.85;;;;;;;25.54;29.20;97869.03;4973043;28;20563;-62
2021/03/02 04:44:26;;;;;;;1.00;0.85;;;;;;;25.54;29.17;97874.28;4960340;28;20034;-62
2021/03/02 04:46:51;;;;;;;1.17;0.93;;;;;;;25.54;28.91;97871.66;4961868;28;20042;-62
2021/03/02 04:49:17;;;;;;;1.73;0.90;;;;;;;25.54;29.37;97873.41;4980449;28;20023;-62
2021/03/02 04:51:42;;;;;;;1.40;1.10;;;;;;;25.54;29.28;97874.28;4962046;28;20579;-62
2021/03/02 04:54:10;;;;;;;1.17;1.08;;;;;;;25.54;29.06;97879.53;4966293;28;20041;-62
2021/03/02 04:56:35;;;;;;;1.63;1.13;;;;;;;25.53;29.33;97872.56;4955707;28;21809;-63
2021/03/02 04:59:00;;;;;;;1.35;1.00;;;;;;;25.51;29.23;97866.50;4966493;28;20042;-61
2021/03/02 05:01:26;;;;;;;1.10;1.00;;;;;;;25.51;29.31;97879.63;4958631;28;20035;-63
2021/03/02 05:03:51;;;;;;;1.02;0.90;;;;;;;25.52;29.15;97881.34;4958859;28;20077;-62
2021/03/02 05:06:17;;;;;;;2.47;1.00;;;;;;;25.51;29.37;97884.88;4961640;28;20032;-62
2021/03/02 05:08:44;;;;;;;1.20;1.10;;;;;;;25.51;29.34;97884.03;4980059;28;20319;-63
2021/03/02 05:11:10;;;;;;;0.98;0.80;;;;;;;25.50;29.23;97885.81;4957675;28;20034;-63
2021/03/02 05:13:35;;;;;;;8.23;2.47;;;;;;;25.49;27.89;97881.47;4966059;28;20030;-62
2021/03/02 05:16:03;;;;;;;2.05;1.45;;;;;;;25.47;28.71;97878.03;4969667;28;20642;-62
2021/03/02 05:18:28;;;;;;;2.28;1.20;;;;;;;25.45;29.07;97880.69;4955404;28;20129;-62
2021/03/02 05:20:56;;;;;;;1.75;1.17;;;;;;;25.45;29.13;97882.47;4959068;28;20495;-63
2021/03/02 05:23:21;;;;;;;0.85;0.85;;;;;;;25.46;29.06;97881.56;4982995;28;20031;-62
2021/03/02 05:25:47;;;;;;;1.42;1.10;;;;;;;25.45;28.98;97877.22;4961446;28;20170;-62
2021/03/02 05:28:12;;;;;;;1.98;1.27;;;;;;;25.44;29.28;97881.63;4962100;28;20034;-62
2021/03/02 05:30:37;;;;;;;1.67;1.15;;;;;;;25.45;29.08;97879.84;4960020;28;20043;-62
2021/03/02 05:33:05;;;;;;;1.52;1.42;;;;;;;25.44;29.31;97888.66;4963489;28;20237;-62
2021/03/02 05:35:31;;;;;;;3.00;0.85;;;;;;;25.44;29.24;97880.78;4959796;28;20506;-62
2021/03/02 05:37:56;;;;;;;0.73;0.73;;;;;;;25.43;29.24;97881.66;4964895;28;20030;-62
2021/03/02 05:40:22;;;;;;;1.90;1.08;;;;;;;25.44;29.25;97883.41;4961791;28;20023;-61
2021/03/02 05:42:47;;;;;;;1.42;0.93;;;;;;;25.43;29.22;97886.91;4950388;28;20035;-63
2021/03/02 05:45:13;;;;;;;1.38;1.20;;;;;;;25.43;29.05;97886.91;4950987;28;20031;-63
2021/03/02 05:47:38;;;;;;;2.03;1.00;;;;;;;25.43;29.31;97885.16;4961351;28;20181;-62
2021/03/02 05:50:04;;;;;;;1.80;1.05;;;;;;;25.42;29.20;97880.81;4962795;28;20042;-63
2021/03/02 05:52:30;;;;;;;1.98;1.58;;;;;;;25.42;29.25;97879.94;4959725;28;20027;-62
2021/03/02 05:54:57;;;;;;;1.50;0.90;;;;;;;25.41;29.33;97880.88;4964461;28;20038;-61
2021/03/02 05:57:22;;;;;;;1.27;1.00;;;;;;;25.42;29.47;97886.06;4942446;28;20124;-63
2021/03/02 05:59:50;;;;;;;1.10;1.00;;;;;;;25.42;29.25;97885.19;4956367;28;20607;-62
2021/03/02 06:02:16;;;;;;;2.33;1.00;;;;;;;25.41;29.38;97878.25;4972546;28;20138;-62
2021/03/02 06:04:41;;;;;;;1.27;1.00;;;;;;;25.41;29.40;97879.13;4964983;28;20030;-62
2021/03/02 06:07:06;;;;;;;1.00;0.77;;;;;;;25.41;29.24;97884.38;4961397;28;20035;-62
2021/03/02 06:09:32;;;;;;;1.42;1.10;;;;;;;25.40;29.25;97880.00;4961254;28;20034;-61
2021/03/02 06:12:04;;;;;;;3.05;0.98;;;;;;;25.39;29.35;97882.69;4949692;28;20023;-61
2021/03/02 06:14:33;;;;;;;1.00;0.88;;;;;;;25.39;29.27;97885.28;4941881;28;20752;-61
2021/03/02 06:16:58;;;;;;;1.42;0.77;;;;;;;25.39;29.23;97885.28;4974077;28;20031;-63
2021/03/02 06:19:38;;;;;;;2.00;0.88;;;;;;;25.38;29.44;97878.34;4958082;28;20049;-61
2021/03/02 06:22:03;;;;;;;1.80;1.05;;;;;;;25.39;29.41;97893.16;4956556;28;20620;-62
2021/03/02 06:24:39;;;;;;;1.20;0.90;;;;;;;25.38;29.32;97884.47;4978236;28;20035;-61
2021/03/02 06:27:11;;;;;;;0.73;0.73;;;;;;;25.38;29.29;97886.22;4945717;28;20034;-63
2021/03/02 06:29:38;;;;;;;1.35;0.95;;;;;;;25.38;29.42;97888.84;4962807;28;20375;-61
2021/03/02 06:32:04;;;;;;;0.98;0.88;;;;;;;25.37;29.61;97892.38;4962206;28;20102;-62
2021/03/02 06:34:29;;;;;;;1.10;1.00;;;;;;;25.36;29.32;97902.00;4971868;28;21007;-62
2021/03/02 06:36:54;;;;;;;1.63;0.88;;;;;;;25.37;29.36;97902.88;4954917;28;20089;-62
2021/03/02 06:39:33;;;;;;;1.98;1.00;;;;;;;25.35;29.33;97905.53;4962864;28;20058;-61
2021/03/02 06:42:11;;;;;;;0.82;0.73;;;;;;;25.36;29.26;97906.41;4956662;28;20023;-61
2021/03/02 06:44:37;;;;;;;1.15;0.90;;;;;;;25.35;29.54;97905.53;4955127;28;20057;-61
2021/03/02 06:47:03;;;;;;;1.27;0.90;;;;;;;25.34;29.30;97903.84;4956457;28;20483;-63
2021/03/02 06:49:40;;;;;;;2.00;0.93;;;;;;;25.35;29.35;97904.72;4961960;28;20420;-61
2021/03/02 06:52:16;;;;;;;1.40;0.95;;;;;;;25.34;29.34;97905.59;4955796;28;20031;-61
2021/03/02 06:54:41;;;;;;;1.30;0.90;;;;;;;25.34;29.37;97908.22;4947150;28;20051;-61
2021/03/02 06:57:07;;;;;;;1.17;0.90;;;;;;;25.35;29.29;97915.19;4964677;28;20031;-61
2021/03/02 06:59:34;;;;;;;2.00;1.23;;;;;;;25.34;29.52;97909.09;4961427;28;20027;-62
2021/03/02 07:02:00;;;;;;;1.23;1.13;;;;;;;25.34;29.49;97910.84;4955879;28;20516;-63
2021/03/02 07:04:29;;;;;;;1.05;0.93;;;;;;;25.33;29.33;97911.75;4973240;28;20106;-63
2021/03/02 07:06:56;;;;;;;2.92;0.95;;;;;;;25.34;29.61;97908.22;4973490;28;20037;-61
2021/03/02 07:09:21;;;;;;;1.45;1.20;;;;;;;25.33;29.42;97911.75;4945897;28;20081;-62
2021/03/02 07:11:49;;;;;;;3.00;1.70;;;;;;;25.31;29.51;97915.28;4973307;28;20093;-61
2021/03/02 07:14:15;;;;;;;2.97;1.20;;;;;;;25.31;29.37;97912.66;4960996;28;20024;-61
2021/03/02 07:16:45;;;;;;;2.58;1.50;;;;;;;25.31;29.52;97920.53;4964999;28;20039;-62
2021/03/02 07:19:15;;;;;;;5.43;1.42;;;;;;;25.31;29.31;97917.91;4953082;28;20027;-62
2021/03/02 07:21:40;;;;;;;5.13;1.50;;;;;;;25.34;29.29;97921.34;4955218;28;20073;-61
2021/03/02 07:24:11;;;;;;;8.20;4.07;;;;;;;25.33;27.69;97922.25;4942239;28;20483;-62
2021/03/02 07:26:37;;;;;;;12.23;5.03;;;;;;;25.29;25.93;97922.34;4940204;28;20031;-62
2021/03/02 07:29:02;;;;;;;11.90;2.80;;;;;;;25.27;26.62;97932.03;4941809;28;20571;-61
2021/03/02 07:31:29;;;;;;;3.35;2.17;;;;;;;25.27;28.30;97932.03;4956380;28;20049;-61
2021/03/02 07:33:55;;;;;;;6.72;1.92;;;;;;;25.24;29.02;97933.91;4961379;28;20038;-61
2021/03/02 07:36:20;;;;;;;6.88;2.20;;;;;;;25.24;29.26;97936.53;4958037;28;20438;-61
2021/03/02 07:39:41;;;;;;;4.40;1.48;;;;;;;25.25;29.36;97935.63;4953759;28;20402;-61
2021/03/02 07:42:21;;;;;;;1.98;1.38;;;;;;;25.26;29.78;97938.22;4944645;28;20038;-63
2021/03/02 07:45:16;;;;;;;3.65;1.95;;;;;;;25.27;29.61;97934.66;4952527;28;20700;-63
2021/03/02 07:47:56;;;;;;;4.15;1.90;;;;;;;25.28;29.73;97941.63;4950222;28;20717;-63
2021/03/02 07:50:32;;;;;;;3.53;1.90;;;;;;;25.29;29.61;97935.47;4951172;28;20465;-63
2021/03/02 07:53:15;;;;;;;5.10;2.08;;;;;;;25.30;29.88;97939.81;4966048;28;20082;-61
2021/03/02 07:55:43;;;;;;;5.90;1.88;;;;;;;25.33;29.70;97943.25;4953749;28;20061;-62
2021/03/02 07:58:18;;;;;;;3.78;1.90;;;;;;;25.34;29.70;97939.69;4950917;28;20369;-61
2021/03/02 08:00:44;;;;;;;3.40;1.70;;;;;;;25.35;29.69;97942.28;4954924;28;20101;-62
2021/03/02 08:03:28;;;;;;;3.20;1.58;;;;;;;25.38;29.85;97950.06;4952512;28;21114;-63
2021/03/02 08:06:29;;;;;;;6.10;1.80;;;;;;;25.38;29.80;97951.81;4954445;28;20514;-61
2021/03/02 08:08:55;;;;;;;3.85;1.42;;;;;;;25.41;29.89;97951.72;4948553;28;20051;-62
2021/03/02 08:11:33;;;;;;;2.80;1.60;;;;;;;25.42;29.92;97951.69;4952747;28;20034;-61
2021/03/02 08:14:19;;;;;;;2.08;1.60;;;;;;;25.45;29.81;97955.97;4968980;28;20125;-61
2021/03/02 08:17:20;;;;;;;4.28;1.55;;;;;;;25.45;29.97;97948.09;4965198;28;20394;-60
2021/03/02 08:20:02;;;;;;;3.83;1.60;;;;;;;25.48;29.96;97949.75;4952587;28;20077;-60
2021/03/02 08:22:30;;;;;;;4.35;1.55;;;;;;;25.49;30.06;97957.56;4955236;28;20038;-61
2021/03/02 08:24:58;;;;;;;3.88;1.52;;;;;;;25.50;30.06;97951.41;4956483;28;20023;-62
2021/03/02 08:27:51;;;;;;;10.10;1.80;;;;;;;25.53;30.11;97955.69;4971758;28;20018;-61
2021/03/02 08:30:24;;;;;;;3.42;1.80;;;;;;;25.55;30.11;97956.53;4956363;28;20764;-61
2021/03/02 08:32:51;;;;;;;3.25;1.67;;;;;;;25.55;29.80;97959.16;4972046;28;20093;-61
2021/03/02 08:35:19;;;;;;;7.85;5.30;;;;;;;25.56;27.23;97953.84;4953948;28;20030;-62
2021/03/02 08:37:51;;;;;;;11.90;8.73;;;;;;;25.45;20.40;97953.34;4943501;28;20121;-60
2021/03/02 08:40:18;;;;;;;13.23;8.70;;;;;;;25.25;19.74;97952.22;4952757;28;20073;-60
2021/03/02 08:42:58;;;;;;;13.23;9.38;;;;;;;24.98;19.28;97961.84;4957910;28;20030;-60
2021/03/02 08:45:23;;;;;;;14.18;10.05;;;;;;;24.72;19.18;97958.22;4975791;28;20042;-62
2021/03/02 08:47:49;;;;;;;10.80;9.10;;;;;;;24.45;19.99;97961.63;4965825;28;20036;-61
2021/03/02 08:50:14;;;;;;;16.63;9.13;;;;;;;24.25;20.49;97964.81;4956820;28;20041;-61
2021/03/02 08:52:40;;;;;;;13.38;8.85;;;;;;;24.13;21.41;97971.22;4956435;28;20034;-61
2021/03/02 08:55:08;;;;;;;13.00;8.50;;;;;;;24.05;22.37;97967.91;4940564;28;20042;-61
2021/03/02 08:57:44;;;;;;;10.05;7.05;;;;;;;24.03;23.16;97965.38;4967210;28;20709;-61
2021/03/02 09:00:15;;;;;;;9.40;6.47;;;;;;;24.06;23.92;97964.41;4956685;28;20061;-62
2021/03/02 09:02:44;;;;;;;8.32;5.90;;;;;;;24.10;24.42;97968.72;4954183;28;20058;-62
2021/03/02 09:05:18;;;;;;;8.70;6.15;;;;;;;24.14;25.07;97963.31;4953886;28;20634;-61
2021/03/02 09:08:06;;;;;;;6.60;5.22;;;;;;;24.22;25.29;97959.66;4969809;28;20026;-61
2021/03/02 09:10:32;;;;;;;7.57;5.10;;;;;;;24.30;25.20;97964.66;4956303;28;20023;-61
2021/03/02 09:13:06;;;;;;;14.38;4.97;;;;;;;24.36;25.68;97956.63;4955375;28;20114;-61
2021/03/02 09:15:35;;;;;;;6.00;4.60;;;;;;;24.43;25.68;97962.53;4956555;28;20039;-61
2021/03/02 09:18:15;;;;;;;6.78;4.68;;;;;;;24.50;25.02;97961.47;4952660;28;20056;-62
2021/03/02 09:20:50;;;;;;;7.53;4.32;;;;;;;24.56;25.64;97965.69;4977500;28;20455;-61
2021/03/02 09:23:16;;;;;;;5.70;4.00;;;;;;;24.61;25.93;97962.03;4942276;28;20030;-61
2021/03/02 09:25:43;;;;;;;9.75;4.20;;;;;;;24.66;26.22;97960.13;4955404;28;20026;-61
2021/03/02 09:28:18;;;;;;;7.40;4.13;;;;;;;24.72;26.25;97963.47;4969165;28;20704;-62
2021/03/02 09:30:43;;;;;;;8.55;3.85;;;;;;;24.77;26.28;97975.53;4969822;28;20058;-61
2021/03/02 09:33:10;;;;;;;8.18;4.20;;;;;;;24.82;27.34;97979.78;4973035;28;20133;-53
2021/03/02 09:35:35;;;;;;;6.60;3.60;;;;;;;24.86;27.04;97979.66;4934918;28;20027;-63
2021/03/02 09:38:01;;;;;;;7.50;4.07;;;;;;;24.87;27.26;97972.66;4960243;28;20034;-63
2021/03/02 09:40:26;;;;;;;12.02;3.78;;;;;;;24.91;27.39;97976.91;4953972;28;20041;-61
2021/03/02 09:42:57;;;;;;;9.23;3.47;;;;;;;24.97;27.62;97981.94;4957007;28;20042;-62
2021/03/02 09:45:22;;;;;;;7.85;3.78;;;;;;;25.08;27.55;97970.25;4955644;28;20424;-66
2021/03/02 09:47:48;;;;;;;10.70;4.32;;;;;;;25.21;27.47;97976.84;4947766;28;20030;-64
2021/03/02 09:50:20;;;;;;;9.30;3.53;;;;;;;25.36;27.37;97966.75;4950391;28;20022;-71
2021/03/02 09:52:52;;;;;;;9.00;3.85;;;;;;;25.52;27.28;97969.75;4946699;28;20034;-61
2021/03/02 09:55:22;;;;;;;9.75;3.72;;;;;;;25.68;26.90;97980.59;4956953;28;20087;-62
2021/03/02 09:58:07;;;;;;;5.78;3.45;;;;;;;25.83;27.53;97966.09;4955877;28;20047;-61
2021/03/02 10:00:45;;;;;;;7.30;3.60;;;;;;;26.03;26.77;97965.41;4958273;28;20049;-60
2021/03/02 10:03:23;;;;;;;6.15;3.63;;;;;;;26.21;27.36;97968.28;4964378;28;20057;-59
2021/03/02 10:05:52;;;;;;;7.47;3.72;;;;;;;26.39;26.80;97971.19;4970820;28;20145;-62
2021/03/02 10:08:39;;;;;;;7.35;3.42;;;;;;;26.54;26.53;97967.97;4953605;28;20117;-62
2021/03/02 10:11:11;;;;;;;12.50;3.47;;;;;;;26.69;26.60;97963.91;4978024;28;20035;-60
2021/03/02 10:13:46;;;;;;;6.85;3.15;;;;;;;26.81;26.42;97962.56;4963410;28;20030;-62
2021/03/02 10:16:15;;;;;;;7.30;3.30;;;;;;;26.96;26.89;97960.31;4955107;28;20196;-60
2021/03/02 10:19:05;;;;;;;9.32;3.20;;;;;;;27.10;26.32;97965.00;4958936;28;20041;-63
2021/03/02 10:21:50;;;;;;;8.40;3.40;;;;;;;27.19;26.12;97961.16;4969360;28;20639;-59
2021/03/02 10:26:47;;;;;;;14.77;3.15;;;;;;;27.41;25.87;97962.91;4974363;28;20050;-32
2021/03/02 10:29:13;;;;;;;5.60;2.97;;;;;;;27.48;25.75;97964.34;4995817;28;20033;-37
2021/03/02 10:31:38;;;;;;;7.80;2.88;;;;;;;27.55;26.05;97959.69;4975750;28;20050;-33
2021/03/02 10:34:05;;;;;;;6.30;3.20;;;;;;;27.59;25.65;97962.13;4974112;28;20692;-32
2021/03/02 10:36:34;;;;;;;5.07;2.67;;;;;;;27.63;25.70;97966.38;4970996;28;20018;-33
2021/03/02 10:39:01;;;;;;;11.40;3.20;;;;;;;27.69;25.61;97964.41;4975881;28;20092;-32
2021/03/02 10:41:27;;;;;;;7.22;3.33;;;;;;;27.72;25.62;97970.41;4974139;28;20546;-32
2021/03/02 10:43:53;;;;;;;5.50;2.60;;;;;;;27.75;25.61;97966.78;4975124;28;20326;-34
2021/03/02 10:46:19;;;;;;;5.53;2.58;;;;;;;27.79;25.70;97965.72;4970701;28;20140;-32
2021/03/02 10:48:45;;;;;;;7.43;3.03;;;;;;;27.80;25.58;97962.16;4987818;28;20104;-33
2021/03/02 10:51:14;;;;;;;5.35;3.00;;;;;;;27.84;25.64;97974.28;4975809;28;20042;-33
2021/03/02 10:53:39;;;;;;;4.72;2.78;;;;;;;27.84;25.75;97969.00;4973737;28;20033;-32
2021/03/02 10:56:05;;;;;;;5.15;2.63;;;;;;;27.87;25.58;97968.88;4987711;28;20042;-32
2021/03/02 10:58:30;;;;;;;5.38;3.10;;;;;;;27.87;25.58;97976.78;4970416;28;20418;-30
2021/03/02 11:00:56;;;;;;;7.53;3.50;;;;;;;27.84;25.26;97974.28;4981707;28;20065;-31
2021/03/02 11:03:22;;;;;;;4.55;2.95;;;;;;;27.81;25.76;97957.75;5001333;28;20479;-31
2021/03/02 11:05:48;;;;;;;5.68;2.60;;;;;;;27.78;25.77;97966.66;4987146;28;20034;-36
2021/03/02 11:08:13;;;;;;;5.75;2.83;;;;;;;27.73;25.94;97958.94;5001899;28;20044;-34
2021/03/02 11:10:39;;;;;;;6.10;2.80;;;;;;;27.70;25.97;97958.22;5000537;28;20020;-32
2021/03/02 11:13:04;;;;;;;4.03;2.25;;;;;;;27.63;26.09;97955.84;5006836;28;20033;-31
2021/03/02 11:15:30;;;;;;;5.40;2.72;;;;;;;27.58;26.06;97951.66;4996284;28;20050;-31
2021/03/02 11:17:56;;;;;;;5.45;2.85;;;;;;;27.54;26.29;97961.47;4976921;28;20034;-33
2021/03/02 11:20:21;;;;;;;5.82;2.95;;;;;;;27.48;26.46;97957.31;4973983;28;20155;-30
2021/03/02 11:22:47;;;;;;;5.93;2.83;;;;;;;27.43;26.51;97953.16;4982983;28;20655;-31
2021/03/02 11:25:17;;;;;;;7.07;2.72;;;;;;;27.37;26.65;97947.25;4972237;28;20552;-32
2021/03/02 11:27:46;;;;;;;8.05;2.53;;;;;;;27.32;26.71;97946.56;4972434;28;20146;-32
2021/03/02 11:30:13;;;;;;;6.72;2.78;;;;;;;27.26;26.94;97938.91;4972044;28;20037;-32
2021/03/02 11:32:38;;;;;;;5.25;2.70;;;;;;;27.21;27.16;97943.50;4977632;28;20022;-34
2021/03/02 11:35:05;;;;;;;6.18;2.47;;;;;;;27.17;26.93;97941.94;4976422;28;20470;-32
2021/03/02 11:37:31;;;;;;;11.38;6.60;;;;;;;27.10;23.70;97936.94;4977845;28;20030;-32
2021/03/02 11:39:56;;;;;;;9.55;5.65;;;;;;;27.02;23.17;97928.47;4973793;28;20043;-31
2021/03/02 11:42:21;;;;;;;13.00;6.35;;;;;;;26.93;22.53;97926.19;4975282;28;20022;-28